Portada
METAR-TAF:

METAR-TAF

Aeroports :

Egilsstaðir, Islàndia

latitud: 65-17N, longitud: 014-24W, altitud: 23 m

Observació

L'informe es va fer fa 55 minuts, a les 01:00 UTC
Vent 5 kt del Sud/Sud-Oest, variant entre Sud i Oest/Sud-Oest
Temperatura 7°C
Humitat 81%
Pressió 1020 hPa
Visibilitat 10 km o més
Escasses núvols a una alçada de 900 ft

METAR: BIEG 170100Z 21005KT 180V250 9999 FEW009 07/04 Q1020

Hora: 01:55 (01:55 UTC)

Pronòstic

L'informe es va fer fa 3 hores i 51 minuts, a les 22:04 UTC
Pronòstic vàlid del 17 a les 00 UTC al 18 a les 00 UTC
Vent 6 kt del Sud
Visibilitat 10 km o més
Núvols disperses a una alçada de 4500 ft
Evolucionant progressivament
l' 17 a les 13 UTC al 17 a les 15 UTC
Vent 10 kt del Est/Sud-Est
Núvols disperses a una alçada de 1400 ft
Cel ennuvolat a una alçada de 3000 ft
pluja

TAF: BIEG 162204Z 1700/1800 18006KT 9999 SCT045 TX12/1712Z TN04/1704Z BECMG 1713/1715 12010KT -RA SCT014 BKN030

Observacions i pronòstics meteorològics de més de 4000 aeroports (METAR i TAF).

Les estacions disponibles són els punts grocs i vermells al mapa.

Posi el ratolí al punt desitjat per veure el nom de l'estació.

Feu clic per veure les observacions i els pronòstics meteorològics.

Per canviar el mapa: feu clic els botons verds amb una creu de color negre per apropar; al botó verd amb un guió per allunyar la imatge; o en les fletxes verdes per a mapes adjacents.


METAR-TAF: